sensor_id;sensor_type;location;lat;lon;timestamp;P1;durP1;ratioP1;P2;durP2;ratioP2
48268;SDS011;34088;52.232;5.196;2023-03-14T00:01:56;23.55;;;4.75;;
48268;SDS011;34088;52.232;5.196;2023-03-14T00:04:22;28.33;;;4.95;;
48268;SDS011;34088;52.232;5.196;2023-03-14T00:06:48;24.75;;;5.32;;
48268;SDS011;34088;52.232;5.196;2023-03-14T00:09:14;21.63;;;4.30;;
48268;SDS011;34088;52.232;5.196;2023-03-14T00:11:40;22.85;;;4.30;;
48268;SDS011;34088;52.232;5.196;2023-03-14T00:14:06;18.75;;;3.97;;
48268;SDS011;34088;52.232;5.196;2023-03-14T00:16:31;23.30;;;4.53;;
48268;SDS011;34088;52.232;5.196;2023-03-14T00:32:29;22.17;;;3.95;;
48268;SDS011;34088;52.232;5.196;2023-03-14T00:34:55;18.73;;;4.13;;
48268;SDS011;34088;52.232;5.196;2023-03-14T00:37:21;23.08;;;3.80;;
48268;SDS011;34088;52.232;5.196;2023-03-14T00:39:47;15.18;;;3.72;;
48268;SDS011;34088;52.232;5.196;2023-03-14T00:42:12;17.27;;;3.63;;
48268;SDS011;34088;52.232;5.196;2023-03-14T00:44:38;16.73;;;3.35;;
48268;SDS011;34088;52.232;5.196;2023-03-14T00:47:04;15.85;;;3.78;;
48268;SDS011;34088;52.232;5.196;2023-03-14T00:49:29;21.05;;;4.20;;
48268;SDS011;34088;52.232;5.196;2023-03-14T00:51:55;19.92;;;4.53;;
48268;SDS011;34088;52.232;5.196;2023-03-14T00:54:20;19.90;;;4.47;;
48268;SDS011;34088;52.232;5.196;2023-03-14T00:56:46;20.45;;;4.47;;
48268;SDS011;34088;52.232;5.196;2023-03-14T00:59:12;19.10;;;4.20;;
48268;SDS011;34088;52.232;5.196;2023-03-14T01:01:38;19.15;;;4.35;;
48268;SDS011;34088;52.232;5.196;2023-03-14T01:04:04;17.77;;;4.70;;
48268;SDS011;34088;52.232;5.196;2023-03-14T01:06:30;13.90;;;3.63;;
48268;SDS011;34088;52.232;5.196;2023-03-14T01:08:56;18.98;;;3.97;;
48268;SDS011;34088;52.232;5.196;2023-03-14T01:11:26;13.23;;;3.40;;
48268;SDS011;34088;52.232;5.196;2023-03-14T01:13:54;14.30;;;3.50;;
48268;SDS011;34088;52.232;5.196;2023-03-14T01:16:20;17.92;;;3.70;;
48268;SDS011;34088;52.232;5.196;2023-03-14T01:18:47;15.63;;;3.45;;
48268;SDS011;34088;52.232;5.196;2023-03-14T01:21:14;12.93;;;2.75;;
48268;SDS011;34088;52.232;5.196;2023-03-14T01:23:44;13.93;;;3.10;;
48268;SDS011;34088;52.232;5.196;2023-03-14T01:26:10;12.65;;;3.28;;
48268;SDS011;34088;52.232;5.196;2023-03-14T01:28:37;16.05;;;3.80;;
48268;SDS011;34088;52.232;5.196;2023-03-14T01:31:04;17.48;;;3.80;;
48268;SDS011;34088;52.232;5.196;2023-03-14T01:33:30;15.60;;;3.67;;
48268;SDS011;34088;52.232;5.196;2023-03-14T01:35:56;16.58;;;4.63;;
48268;SDS011;34088;52.232;5.196;2023-03-14T01:38:21;15.25;;;4.45;;
48268;SDS011;34088;52.232;5.196;2023-03-14T01:40:47;16.77;;;3.65;;
48268;SDS011;34088;52.232;5.196;2023-03-14T01:43:14;16.98;;;3.78;;
48268;SDS011;34088;52.232;5.196;2023-03-14T01:48:31;19.35;;;4.35;;
48268;SDS011;34088;52.232;5.196;2023-03-14T01:50:59;19.38;;;4.13;;
48268;SDS011;34088;52.232;5.196;2023-03-14T01:53:25;17.15;;;3.78;;
48268;SDS011;34088;52.232;5.196;2023-03-14T01:55:51;14.68;;;3.78;;
48268;SDS011;34088;52.232;5.196;2023-03-14T01:58:17;16.40;;;4.10;;
48268;SDS011;34088;52.232;5.196;2023-03-14T02:00:45;13.98;;;3.90;;
48268;SDS011;34088;52.232;5.196;2023-03-14T02:03:11;17.95;;;4.25;;
48268;SDS011;34088;52.232;5.196;2023-03-14T02:05:40;18.85;;;4.40;;
48268;SDS011;34088;52.232;5.196;2023-03-14T02:08:08;17.30;;;3.47;;
48268;SDS011;34088;52.232;5.196;2023-03-14T02:10:38;18.50;;;3.67;;
48268;SDS011;34088;52.232;5.196;2023-03-14T02:13:05;17.63;;;3.15;;
48268;SDS011;34088;52.232;5.196;2023-03-14T02:15:31;17.33;;;3.40;;
48268;SDS011;34088;52.232;5.196;2023-03-14T02:17:57;15.35;;;3.58;;
48268;SDS011;34088;52.232;5.196;2023-03-14T02:22:49;19.33;;;4.07;;
48268;SDS011;34088;52.232;5.196;2023-03-14T02:27:59;15.23;;;3.40;;
48268;SDS011;34088;52.232;5.196;2023-03-14T02:30:26;15.00;;;3.15;;
48268;SDS011;34088;52.232;5.196;2023-03-14T02:32:55;11.27;;;2.72;;
48268;SDS011;34088;52.232;5.196;2023-03-14T02:35:34;14.90;;;2.60;;
48268;SDS011;34088;52.232;5.196;2023-03-14T02:38:22;15.50;;;3.28;;
48268;SDS011;34088;52.232;5.196;2023-03-14T02:40:50;15.55;;;2.70;;
48268;SDS011;34088;52.232;5.196;2023-03-14T02:43:15;16.73;;;2.47;;
48268;SDS011;34088;52.232;5.196;2023-03-14T02:50:47;12.68;;;2.08;;
48268;SDS011;34088;52.232;5.196;2023-03-14T02:53:16;14.27;;;2.50;;
48268;SDS011;34088;52.232;5.196;2023-03-14T02:55:44;12.38;;;2.88;;
48268;SDS011;34088;52.232;5.196;2023-03-14T02:58:11;12.32;;;3.00;;
48268;SDS011;34088;52.232;5.196;2023-03-14T03:00:37;15.63;;;2.95;;
48268;SDS011;34088;52.232;5.196;2023-03-14T03:03:03;11.40;;;2.65;;
48268;SDS011;34088;52.232;5.196;2023-03-14T03:05:30;13.38;;;3.05;;
48268;SDS011;34088;52.232;5.196;2023-03-14T03:07:56;11.05;;;2.50;;
48268;SDS011;34088;52.232;5.196;2023-03-14T03:10:22;10.68;;;2.92;;
48268;SDS011;34088;52.232;5.196;2023-03-14T03:12:48;16.23;;;2.80;;
48268;SDS011;34088;52.232;5.196;2023-03-14T03:15:13;11.82;;;2.55;;
48268;SDS011;34088;52.232;5.196;2023-03-14T03:17:39;13.75;;;3.20;;
48268;SDS011;34088;52.232;5.196;2023-03-14T03:20:04;14.60;;;3.30;;
48268;SDS011;34088;52.232;5.196;2023-03-14T03:22:33;12.80;;;3.10;;
48268;SDS011;34088;52.232;5.196;2023-03-14T03:24:59;13.23;;;3.22;;
48268;SDS011;34088;52.232;5.196;2023-03-14T03:27:24;13.75;;;2.92;;
48268;SDS011;34088;52.232;5.196;2023-03-14T03:29:50;13.77;;;3.05;;
48268;SDS011;34088;52.232;5.196;2023-03-14T03:32:16;14.90;;;3.35;;
48268;SDS011;34088;52.232;5.196;2023-03-14T03:34:41;15.02;;;3.20;;
48268;SDS011;34088;52.232;5.196;2023-03-14T03:37:07;18.77;;;3.47;;
48268;SDS011;34088;52.232;5.196;2023-03-14T03:39:32;13.02;;;3.13;;
48268;SDS011;34088;52.232;5.196;2023-03-14T03:41:58;17.63;;;3.55;;
48268;SDS011;34088;52.232;5.196;2023-03-14T03:44:23;13.85;;;3.13;;
48268;SDS011;34088;52.232;5.196;2023-03-14T03:46:49;17.70;;;3.85;;
48268;SDS011;34088;52.232;5.196;2023-03-14T03:49:15;17.55;;;3.40;;
48268;SDS011;34088;52.232;5.196;2023-03-14T03:51:40;14.23;;;3.13;;
48268;SDS011;34088;52.232;5.196;2023-03-14T03:54:06;14.85;;;3.40;;
48268;SDS011;34088;52.232;5.196;2023-03-14T03:56:31;16.95;;;3.08;;
48268;SDS011;34088;52.232;5.196;2023-03-14T03:58:57;18.60;;;3.35;;
48268;SDS011;34088;52.232;5.196;2023-03-14T04:01:22;17.52;;;3.58;;
48268;SDS011;34088;52.232;5.196;2023-03-14T04:03:48;12.10;;;3.08;;
48268;SDS011;34088;52.232;5.196;2023-03-14T04:06:13;16.02;;;3.15;;
48268;SDS011;34088;52.232;5.196;2023-03-14T04:08:39;10.65;;;2.70;;
48268;SDS011;34088;52.232;5.196;2023-03-14T04:11:08;11.73;;;2.60;;
48268;SDS011;34088;52.232;5.196;2023-03-14T04:13:34;17.33;;;3.53;;
48268;SDS011;34088;52.232;5.196;2023-03-14T04:15:59;13.10;;;3.13;;
48268;SDS011;34088;52.232;5.196;2023-03-14T04:18:25;14.50;;;3.40;;
48268;SDS011;34088;52.232;5.196;2023-03-14T04:20:51;15.95;;;3.20;;
48268;SDS011;34088;52.232;5.196;2023-03-14T04:23:20;13.77;;;3.22;;
48268;SDS011;34088;52.232;5.196;2023-03-14T04:25:49;15.30;;;2.97;;
48268;SDS011;34088;52.232;5.196;2023-03-14T04:28:15;12.45;;;3.38;;
48268;SDS011;34088;52.232;5.196;2023-03-14T04:30:41;14.40;;;3.72;;
48268;SDS011;34088;52.232;5.196;2023-03-14T04:33:06;12.55;;;2.90;;
48268;SDS011;34088;52.232;5.196;2023-03-14T04:35:32;16.00;;;3.70;;
48268;SDS011;34088;52.232;5.196;2023-03-14T04:37:58;14.73;;;3.00;;
48268;SDS011;34088;52.232;5.196;2023-03-14T04:40:24;18.42;;;3.55;;
48268;SDS011;34088;52.232;5.196;2023-03-14T04:42:50;11.45;;;3.28;;
48268;SDS011;34088;52.232;5.196;2023-03-14T04:45:15;13.85;;;2.70;;
48268;SDS011;34088;52.232;5.196;2023-03-14T04:47:41;14.57;;;2.85;;
48268;SDS011;34088;52.232;5.196;2023-03-14T04:50:07;14.38;;;3.40;;
48268;SDS011;34088;52.232;5.196;2023-03-14T04:52:33;11.25;;;3.00;;
48268;SDS011;34088;52.232;5.196;2023-03-14T04:54:59;12.32;;;3.15;;
48268;SDS011;34088;52.232;5.196;2023-03-14T04:57:25;13.77;;;3.45;;
48268;SDS011;34088;52.232;5.196;2023-03-14T04:59:50;18.55;;;3.80;;
48268;SDS011;34088;52.232;5.196;2023-03-14T05:02:16;12.02;;;3.30;;
48268;SDS011;34088;52.232;5.196;2023-03-14T05:04:41;16.58;;;3.42;;
48268;SDS011;34088;52.232;5.196;2023-03-14T05:07:07;14.20;;;3.40;;
48268;SDS011;34088;52.232;5.196;2023-03-14T05:09:32;18.20;;;3.90;;
48268;SDS011;34088;52.232;5.196;2023-03-14T05:11:58;12.98;;;3.45;;
48268;SDS011;34088;52.232;5.196;2023-03-14T05:14:23;13.95;;;3.05;;
48268;SDS011;34088;52.232;5.196;2023-03-14T05:16:49;12.30;;;3.00;;
48268;SDS011;34088;52.232;5.196;2023-03-14T05:19:15;15.60;;;3.10;;
48268;SDS011;34088;52.232;5.196;2023-03-14T05:21:40;13.25;;;3.83;;
48268;SDS011;34088;52.232;5.196;2023-03-14T05:24:06;17.08;;;3.55;;
48268;SDS011;34088;52.232;5.196;2023-03-14T05:26:31;14.57;;;3.17;;
48268;SDS011;34088;52.232;5.196;2023-03-14T05:28:57;12.32;;;3.85;;
48268;SDS011;34088;52.232;5.196;2023-03-14T05:31:22;13.82;;;3.58;;
48268;SDS011;34088;52.232;5.196;2023-03-14T05:33:48;13.95;;;3.45;;
48268;SDS011;34088;52.232;5.196;2023-03-14T05:36:13;12.13;;;3.70;;
48268;SDS011;34088;52.232;5.196;2023-03-14T05:38:39;14.18;;;3.92;;
48268;SDS011;34088;52.232;5.196;2023-03-14T05:41:05;12.43;;;3.90;;
48268;SDS011;34088;52.232;5.196;2023-03-14T05:43:31;15.30;;;4.57;;
48268;SDS011;34088;52.232;5.196;2023-03-14T05:45:56;18.98;;;4.53;;
48268;SDS011;34088;52.232;5.196;2023-03-14T05:48:22;10.70;;;4.40;;
48268;SDS011;34088;52.232;5.196;2023-03-14T05:50:47;13.32;;;3.90;;
48268;SDS011;34088;52.232;5.196;2023-03-14T05:53:13;12.55;;;3.88;;
48268;SDS011;34088;52.232;5.196;2023-03-14T05:55:39;14.05;;;4.40;;
48268;SDS011;34088;52.232;5.196;2023-03-14T05:58:05;11.73;;;3.75;;
48268;SDS011;34088;52.232;5.196;2023-03-14T06:00:31;14.73;;;5.00;;
48268;SDS011;34088;52.232;5.196;2023-03-14T06:02:56;11.10;;;4.05;;
48268;SDS011;34088;52.232;5.196;2023-03-14T06:05:22;16.65;;;4.90;;
48268;SDS011;34088;52.232;5.196;2023-03-14T06:07:48;13.88;;;4.72;;
48268;SDS011;34088;52.232;5.196;2023-03-14T06:10:13;10.07;;;4.90;;
48268;SDS011;34088;52.232;5.196;2023-03-14T06:12:39;10.38;;;4.20;;
48268;SDS011;34088;52.232;5.196;2023-03-14T06:15:04;9.85;;;4.00;;
48268;SDS011;34088;52.232;5.196;2023-03-14T06:17:30;7.75;;;3.80;;
48268;SDS011;34088;52.232;5.196;2023-03-14T06:19:56;6.78;;;3.30;;
48268;SDS011;34088;52.232;5.196;2023-03-14T06:22:22;7.38;;;2.83;;
48268;SDS011;34088;52.232;5.196;2023-03-14T06:24:47;7.60;;;3.08;;
48268;SDS011;34088;52.232;5.196;2023-03-14T06:27:13;6.00;;;1.95;;
48268;SDS011;34088;52.232;5.196;2023-03-14T06:29:38;5.03;;;1.60;;
48268;SDS011;34088;52.232;5.196;2023-03-14T06:32:04;2.47;;;1.10;;
48268;SDS011;34088;52.232;5.196;2023-03-14T06:34:30;5.53;;;1.25;;
48268;SDS011;34088;52.232;5.196;2023-03-14T06:36:55;5.60;;;1.40;;
48268;SDS011;34088;52.232;5.196;2023-03-14T06:39:21;6.15;;;1.88;;
48268;SDS011;34088;52.232;5.196;2023-03-14T06:41:46;5.47;;;1.40;;
48268;SDS011;34088;52.232;5.196;2023-03-14T06:44:12;2.58;;;1.40;;
48268;SDS011;34088;52.232;5.196;2023-03-14T06:46:37;4.75;;;1.50;;
48268;SDS011;34088;52.232;5.196;2023-03-14T06:49:03;4.60;;;1.60;;
48268;SDS011;34088;52.232;5.196;2023-03-14T06:51:29;5.95;;;1.60;;
48268;SDS011;34088;52.232;5.196;2023-03-14T06:53:54;4.47;;;1.30;;
48268;SDS011;34088;52.232;5.196;2023-03-14T06:56:20;5.25;;;1.45;;
48268;SDS011;34088;52.232;5.196;2023-03-14T06:58:45;4.22;;;1.50;;
48268;SDS011;34088;52.232;5.196;2023-03-14T07:01:20;4.00;;;1.63;;
48268;SDS011;34088;52.232;5.196;2023-03-14T07:03:47;4.18;;;1.33;;
48268;SDS011;34088;52.232;5.196;2023-03-14T07:06:13;5.20;;;1.00;;
48268;SDS011;34088;52.232;5.196;2023-03-14T07:08:38;5.07;;;1.45;;
48268;SDS011;34088;52.232;5.196;2023-03-14T07:11:04;7.43;;;1.77;;
48268;SDS011;34088;52.232;5.196;2023-03-14T07:13:30;5.25;;;1.20;;
48268;SDS011;34088;52.232;5.196;2023-03-14T07:15:55;4.75;;;1.20;;
48268;SDS011;34088;52.232;5.196;2023-03-14T07:18:21;6.00;;;1.33;;
48268;SDS011;34088;52.232;5.196;2023-03-14T07:20:46;5.45;;;1.23;;
48268;SDS011;34088;52.232;5.196;2023-03-14T07:23:12;6.53;;;1.30;;
48268;SDS011;34088;52.232;5.196;2023-03-14T07:25:37;5.88;;;1.10;;
48268;SDS011;34088;52.232;5.196;2023-03-14T07:28:03;11.05;;;1.75;;
48268;SDS011;34088;52.232;5.196;2023-03-14T07:30:29;8.23;;;1.40;;
48268;SDS011;34088;52.232;5.196;2023-03-14T07:32:54;9.52;;;1.40;;
48268;SDS011;34088;52.232;5.196;2023-03-14T07:37:45;8.25;;;1.50;;
48268;SDS011;34088;52.232;5.196;2023-03-14T07:40:11;7.63;;;1.70;;
48268;SDS011;34088;52.232;5.196;2023-03-14T07:42:40;6.10;;;1.38;;
48268;SDS011;34088;52.232;5.196;2023-03-14T07:45:06;5.07;;;1.48;;
48268;SDS011;34088;52.232;5.196;2023-03-14T07:47:33;8.18;;;1.35;;
48268;SDS011;34088;52.232;5.196;2023-03-14T07:49:58;8.10;;;1.80;;
48268;SDS011;34088;52.232;5.196;2023-03-14T07:52:24;11.52;;;1.73;;
48268;SDS011;34088;52.232;5.196;2023-03-14T07:54:49;11.32;;;1.60;;
48268;SDS011;34088;52.232;5.196;2023-03-14T07:57:15;9.65;;;1.58;;
48268;SDS011;34088;52.232;5.196;2023-03-14T07:59:41;11.07;;;2.00;;
48268;SDS011;34088;52.232;5.196;2023-03-14T08:02:08;11.98;;;2.17;;
48268;SDS011;34088;52.232;5.196;2023-03-14T08:04:36;5.28;;;1.30;;
48268;SDS011;34088;52.232;5.196;2023-03-14T08:07:02;9.13;;;1.30;;
48268;SDS011;34088;52.232;5.196;2023-03-14T08:11:53;5.03;;;0.98;;
48268;SDS011;34088;52.232;5.196;2023-03-14T08:14:19;5.20;;;0.98;;
48268;SDS011;34088;52.232;5.196;2023-03-14T08:16:45;5.38;;;1.20;;
48268;SDS011;34088;52.232;5.196;2023-03-14T08:19:10;8.48;;;1.30;;
48268;SDS011;34088;52.232;5.196;2023-03-14T08:21:36;7.32;;;1.23;;
48268;SDS011;34088;52.232;5.196;2023-03-14T08:24:02;5.97;;;1.23;;
48268;SDS011;34088;52.232;5.196;2023-03-14T08:26:27;7.32;;;0.85;;
48268;SDS011;34088;52.232;5.196;2023-03-14T08:28:53;7.47;;;0.82;;
48268;SDS011;34088;52.232;5.196;2023-03-14T08:31:18;3.72;;;0.63;;
48268;SDS011;34088;52.232;5.196;2023-03-14T08:33:44;5.60;;;0.80;;
48268;SDS011;34088;52.232;5.196;2023-03-14T08:38:35;7.30;;;0.90;;
48268;SDS011;34088;52.232;5.196;2023-03-14T08:41:01;8.65;;;1.02;;
48268;SDS011;34088;52.232;5.196;2023-03-14T08:43:28;8.48;;;1.20;;
48268;SDS011;34088;52.232;5.196;2023-03-14T08:48:23;11.43;;;1.80;;
48268;SDS011;34088;52.232;5.196;2023-03-14T08:53:14;14.98;;;2.08;;
48268;SDS011;34088;52.232;5.196;2023-03-14T08:55:40;15.65;;;2.10;;
48268;SDS011;34088;52.232;5.196;2023-03-14T09:00:31;10.45;;;1.83;;
48268;SDS011;34088;52.232;5.196;2023-03-14T09:02:56;18.67;;;2.58;;
48268;SDS011;34088;52.232;5.196;2023-03-14T09:07:47;25.08;;;3.70;;
48268;SDS011;34088;52.232;5.196;2023-03-14T09:10:13;24.25;;;2.95;;
48268;SDS011;34088;52.232;5.196;2023-03-14T09:15:04;19.90;;;3.05;;
48268;SDS011;34088;52.232;5.196;2023-03-14T09:17:30;19.38;;;2.70;;
48268;SDS011;34088;52.232;5.196;2023-03-14T09:22:21;16.70;;;2.60;;
48268;SDS011;34088;52.232;5.196;2023-03-14T09:24:47;16.77;;;2.50;;
48268;SDS011;34088;52.232;5.196;2023-03-14T09:27:12;23.38;;;2.95;;
48268;SDS011;34088;52.232;5.196;2023-03-14T09:29:38;19.15;;;2.70;;
48268;SDS011;34088;52.232;5.196;2023-03-14T09:32:03;20.63;;;2.67;;
48268;SDS011;34088;52.232;5.196;2023-03-14T09:36:54;15.93;;;2.40;;
48268;SDS011;34088;52.232;5.196;2023-03-14T09:39:20;17.02;;;2.35;;
48268;SDS011;34088;52.232;5.196;2023-03-14T09:41:49;15.27;;;2.33;;
48268;SDS011;34088;52.232;5.196;2023-03-14T09:44:21;18.70;;;3.33;;
48268;SDS011;34088;52.232;5.196;2023-03-14T09:46:51;19.88;;;2.60;;
48268;SDS011;34088;52.232;5.196;2023-03-14T09:49:23;25.00;;;3.60;;
48268;SDS011;34088;52.232;5.196;2023-03-14T09:51:54;20.60;;;3.13;;
48268;SDS011;34088;52.232;5.196;2023-03-14T09:54:27;17.05;;;2.70;;
48268;SDS011;34088;52.232;5.196;2023-03-14T09:56:57;17.85;;;2.72;;
48268;SDS011;34088;52.232;5.196;2023-03-14T09:59:22;18.15;;;2.20;;
48268;SDS011;34088;52.232;5.196;2023-03-14T10:04:14;13.82;;;2.25;;
48268;SDS011;34088;52.232;5.196;2023-03-14T10:06:41;20.90;;;2.60;;
48268;SDS011;34088;52.232;5.196;2023-03-14T10:11:35;18.95;;;2.53;;
48268;SDS011;34088;52.232;5.196;2023-03-14T10:16:30;16.98;;;2.60;;
48268;SDS011;34088;52.232;5.196;2023-03-14T10:19:05;23.25;;;3.33;;
48268;SDS011;34088;52.232;5.196;2023-03-14T10:21:38;18.33;;;3.28;;
48268;SDS011;34088;52.232;5.196;2023-03-14T10:26:48;24.10;;;3.30;;
48268;SDS011;34088;52.232;5.196;2023-03-14T10:29:15;18.08;;;2.22;;
48268;SDS011;34088;52.232;5.196;2023-03-14T10:34:34;21.73;;;3.10;;
48268;SDS011;34088;52.232;5.196;2023-03-14T10:39:36;21.00;;;3.15;;
48268;SDS011;34088;52.232;5.196;2023-03-14T10:44:39;22.20;;;3.25;;
48268;SDS011;34088;52.232;5.196;2023-03-14T10:47:05;23.15;;;3.03;;
48268;SDS011;34088;52.232;5.196;2023-03-14T10:52:01;30.42;;;4.05;;
48268;SDS011;34088;52.232;5.196;2023-03-14T10:54:56;23.88;;;3.10;;
48268;SDS011;34088;52.232;5.196;2023-03-14T10:57:23;19.07;;;3.23;;
48268;SDS011;34088;52.232;5.196;2023-03-14T10:59:50;21.25;;;2.90;;
48268;SDS011;34088;52.232;5.196;2023-03-14T11:08:01;19.83;;;2.90;;
48268;SDS011;34088;52.232;5.196;2023-03-14T11:10:39;21.30;;;3.17;;
48268;SDS011;34088;52.232;5.196;2023-03-14T11:13:20;21.60;;;3.28;;
48268;SDS011;34088;52.232;5.196;2023-03-14T11:21:39;14.02;;;2.42;;
48268;SDS011;34088;52.232;5.196;2023-03-14T11:29:47;15.93;;;3.17;;
48268;SDS011;34088;52.232;5.196;2023-03-14T11:32:36;12.30;;;1.92;;
48268;SDS011;34088;52.232;5.196;2023-03-14T11:35:17;10.77;;;2.03;;
48268;SDS011;34088;52.232;5.196;2023-03-14T11:40:40;7.20;;;1.52;;
48268;SDS011;34088;52.232;5.196;2023-03-14T11:43:17;12.73;;;2.13;;
48268;SDS011;34088;52.232;5.196;2023-03-14T11:45:52;13.37;;;2.30;;
48268;SDS011;34088;52.232;5.196;2023-03-14T11:50:55;14.52;;;2.38;;
48268;SDS011;34088;52.232;5.196;2023-03-14T11:53:29;16.17;;;2.03;;
48268;SDS011;34088;52.232;5.196;2023-03-14T11:56:11;13.90;;;2.40;;
48268;SDS011;34088;52.232;5.196;2023-03-14T11:59:05;14.35;;;2.33;;
48268;SDS011;34088;52.232;5.196;2023-03-14T12:01:39;11.65;;;1.65;;
48268;SDS011;34088;52.232;5.196;2023-03-14T12:04:16;15.98;;;1.70;;
48268;SDS011;34088;52.232;5.196;2023-03-14T12:07:01;9.60;;;1.80;;
48268;SDS011;34088;52.232;5.196;2023-03-14T12:09:28;13.23;;;2.30;;
48268;SDS011;34088;52.232;5.196;2023-03-14T12:16:54;12.75;;;1.80;;
48268;SDS011;34088;52.232;5.196;2023-03-14T12:24:17;10.23;;;1.77;;
48268;SDS011;34088;52.232;5.196;2023-03-14T12:26:55;9.32;;;1.67;;
48268;SDS011;34088;52.232;5.196;2023-03-14T12:29:22;10.52;;;1.65;;
48268;SDS011;34088;52.232;5.196;2023-03-14T12:46:58;10.68;;;2.00;;
48268;SDS011;34088;52.232;5.196;2023-03-14T12:49:39;9.23;;;1.63;;
48268;SDS011;34088;52.232;5.196;2023-03-14T12:54:56;9.10;;;1.45;;
48268;SDS011;34088;52.232;5.196;2023-03-14T12:57:36;8.95;;;1.77;;
48268;SDS011;34088;52.232;5.196;2023-03-14T13:02:44;9.85;;;1.13;;
48268;SDS011;34088;52.232;5.196;2023-03-14T13:15:20;10.27;;;1.48;;
48268;SDS011;34088;52.232;5.196;2023-03-14T13:17:50;14.18;;;2.30;;
48268;SDS011;34088;52.232;5.196;2023-03-14T13:20:28;12.77;;;1.92;;
48268;SDS011;34088;52.232;5.196;2023-03-14T13:22:56;6.15;;;1.35;;
48268;SDS011;34088;52.232;5.196;2023-03-14T13:27:48;7.07;;;1.02;;
48268;SDS011;34088;52.232;5.196;2023-03-14T13:32:49;14.88;;;1.90;;
48268;SDS011;34088;52.232;5.196;2023-03-14T13:35:17;11.63;;;1.70;;
48268;SDS011;34088;52.232;5.196;2023-03-14T13:37:44;13.10;;;1.88;;
48268;SDS011;34088;52.232;5.196;2023-03-14T13:42:43;8.60;;;1.70;;
48268;SDS011;34088;52.232;5.196;2023-03-14T13:47:34;9.73;;;1.77;;
48268;SDS011;34088;52.232;5.196;2023-03-14T13:50:03;14.23;;;2.08;;
48268;SDS011;34088;52.232;5.196;2023-03-14T13:54:56;11.57;;;2.42;;
48268;SDS011;34088;52.232;5.196;2023-03-14T13:57:24;11.60;;;2.25;;
48268;SDS011;34088;52.232;5.196;2023-03-14T14:02:25;11.30;;;1.60;;
48268;SDS011;34088;52.232;5.196;2023-03-14T14:04:52;7.60;;;1.20;;
48268;SDS011;34088;52.232;5.196;2023-03-14T14:09:44;11.25;;;2.88;;
48268;SDS011;34088;52.232;5.196;2023-03-14T14:12:14;7.13;;;2.05;;
48268;SDS011;34088;52.232;5.196;2023-03-14T14:19:45;7.35;;;1.40;;
48268;SDS011;34088;52.232;5.196;2023-03-14T14:24:37;11.38;;;1.73;;
48268;SDS011;34088;52.232;5.196;2023-03-14T14:27:13;7.82;;;1.27;;
48268;SDS011;34088;52.232;5.196;2023-03-14T14:29:39;7.35;;;1.50;;
48268;SDS011;34088;52.232;5.196;2023-03-14T14:37:24;5.70;;;1.52;;
48268;SDS011;34088;52.232;5.196;2023-03-14T14:39:55;8.65;;;1.40;;
48268;SDS011;34088;52.232;5.196;2023-03-14T14:42:24;8.82;;;1.45;;
48268;SDS011;34088;52.232;5.196;2023-03-14T14:44:55;8.23;;;1.65;;
48268;SDS011;34088;52.232;5.196;2023-03-14T14:47:22;7.85;;;1.40;;
48268;SDS011;34088;52.232;5.196;2023-03-14T14:49:49;9.07;;;1.45;;
48268;SDS011;34088;52.232;5.196;2023-03-14T14:52:31;10.88;;;1.83;;
48268;SDS011;34088;52.232;5.196;2023-03-14T14:55:00;9.75;;;1.30;;
48268;SDS011;34088;52.232;5.196;2023-03-14T14:57:33;8.30;;;1.58;;
48268;SDS011;34088;52.232;5.196;2023-03-14T15:00:10;7.57;;;1.67;;
48268;SDS011;34088;52.232;5.196;2023-03-14T15:02:47;9.95;;;1.40;;
48268;SDS011;34088;52.232;5.196;2023-03-14T15:07:42;11.35;;;2.40;;
48268;SDS011;34088;52.232;5.196;2023-03-14T15:12:37;19.05;;;3.13;;
48268;SDS011;34088;52.232;5.196;2023-03-14T15:17:28;9.45;;;1.83;;
48268;SDS011;34088;52.232;5.196;2023-03-14T15:22:21;6.85;;;1.90;;
48268;SDS011;34088;52.232;5.196;2023-03-14T15:24:46;10.73;;;2.13;;
48268;SDS011;34088;52.232;5.196;2023-03-14T15:29:38;8.98;;;3.38;;
48268;SDS011;34088;52.232;5.196;2023-03-14T15:32:04;10.85;;;2.25;;
48268;SDS011;34088;52.232;5.196;2023-03-14T15:36:55;10.93;;;2.00;;
48268;SDS011;34088;52.232;5.196;2023-03-14T15:39:21;9.98;;;1.80;;
48268;SDS011;34088;52.232;5.196;2023-03-14T15:41:46;13.48;;;1.88;;
48268;SDS011;34088;52.232;5.196;2023-03-14T15:46:38;9.18;;;1.52;;
48268;SDS011;34088;52.232;5.196;2023-03-14T15:51:29;11.20;;;1.95;;
48268;SDS011;34088;52.232;5.196;2023-03-14T15:56:20;15.43;;;2.10;;
48268;SDS011;34088;52.232;5.196;2023-03-14T15:58:48;13.32;;;2.65;;
48268;SDS011;34088;52.232;5.196;2023-03-14T16:01:15;9.85;;;2.22;;
48268;SDS011;34088;52.232;5.196;2023-03-14T16:06:08;12.88;;;1.88;;
48268;SDS011;34088;52.232;5.196;2023-03-14T16:11:00;11.73;;;1.60;;
48268;SDS011;34088;52.232;5.196;2023-03-14T16:13:26;11.65;;;2.17;;
48268;SDS011;34088;52.232;5.196;2023-03-14T16:15:56;13.45;;;2.90;;
48268;SDS011;34088;52.232;5.196;2023-03-14T16:18:23;16.75;;;2.13;;
48268;SDS011;34088;52.232;5.196;2023-03-14T16:20:55;12.13;;;2.00;;
48268;SDS011;34088;52.232;5.196;2023-03-14T16:23:22;12.85;;;1.90;;
48268;SDS011;34088;52.232;5.196;2023-03-14T16:25:48;11.10;;;1.75;;
48268;SDS011;34088;52.232;5.196;2023-03-14T16:30:39;16.65;;;1.80;;
48268;SDS011;34088;52.232;5.196;2023-03-14T16:35:34;8.73;;;1.63;;
48268;SDS011;34088;52.232;5.196;2023-03-14T16:38:00;7.78;;;2.08;;
48268;SDS011;34088;52.232;5.196;2023-03-14T16:42:51;11.20;;;2.20;;
48268;SDS011;34088;52.232;5.196;2023-03-14T16:45:17;10.65;;;1.60;;
48268;SDS011;34088;52.232;5.196;2023-03-14T16:50:09;14.00;;;1.77;;
48268;SDS011;34088;52.232;5.196;2023-03-14T16:52:34;15.18;;;2.50;;
48268;SDS011;34088;52.232;5.196;2023-03-14T16:57:26;12.63;;;3.33;;
48268;SDS011;34088;52.232;5.196;2023-03-14T16:59:52;9.73;;;1.38;;
48268;SDS011;34088;52.232;5.196;2023-03-14T17:04:43;8.65;;;1.90;;
48268;SDS011;34088;52.232;5.196;2023-03-14T17:07:08;11.90;;;1.90;;
48268;SDS011;34088;52.232;5.196;2023-03-14T17:12:00;10.75;;;1.83;;
48268;SDS011;34088;52.232;5.196;2023-03-14T17:14:25;12.00;;;1.75;;
48268;SDS011;34088;52.232;5.196;2023-03-14T17:19:16;12.75;;;2.17;;
48268;SDS011;34088;52.232;5.196;2023-03-14T17:24:07;10.40;;;1.70;;
48268;SDS011;34088;52.232;5.196;2023-03-14T17:28:58;12.80;;;2.45;;
48268;SDS011;34088;52.232;5.196;2023-03-14T17:31:24;10.82;;;2.00;;
48268;SDS011;34088;52.232;5.196;2023-03-14T17:33:50;10.57;;;1.70;;
48268;SDS011;34088;52.232;5.196;2023-03-14T17:36:19;12.57;;;1.73;;
48268;SDS011;34088;52.232;5.196;2023-03-14T17:38:46;13.07;;;2.55;;
48268;SDS011;34088;52.232;5.196;2023-03-14T17:43:38;12.57;;;1.88;;
48268;SDS011;34088;52.232;5.196;2023-03-14T17:48:35;12.15;;;1.77;;
48268;SDS011;34088;52.232;5.196;2023-03-14T17:53:26;13.30;;;2.10;;
48268;SDS011;34088;52.232;5.196;2023-03-14T17:55:53;11.70;;;1.95;;
48268;SDS011;34088;52.232;5.196;2023-03-14T18:00:44;8.45;;;1.80;;
48268;SDS011;34088;52.232;5.196;2023-03-14T18:05:39;10.60;;;1.80;;
48268;SDS011;34088;52.232;5.196;2023-03-14T18:08:05;13.52;;;1.80;;
48268;SDS011;34088;52.232;5.196;2023-03-14T18:10:31;13.00;;;2.10;;
48268;SDS011;34088;52.232;5.196;2023-03-14T18:15:23;11.32;;;1.45;;
48268;SDS011;34088;52.232;5.196;2023-03-14T18:20:14;13.75;;;1.95;;
48268;SDS011;34088;52.232;5.196;2023-03-14T18:22:40;9.25;;;1.77;;
48268;SDS011;34088;52.232;5.196;2023-03-14T18:27:32;12.73;;;2.40;;
48268;SDS011;34088;52.232;5.196;2023-03-14T18:32:23;15.77;;;3.38;;
48268;SDS011;34088;52.232;5.196;2023-03-14T18:34:49;13.13;;;3.92;;
48268;SDS011;34088;52.232;5.196;2023-03-14T18:39:40;12.35;;;3.28;;